createdAt,value
2022-10-25T00:00:03.701Z,2.90
2022-10-25T00:05:07.367Z,3.35
2022-10-25T00:10:12.027Z,2.97
2022-10-25T00:15:15.640Z,3.38
2022-10-25T00:20:18.771Z,3.90
2022-10-25T00:25:22.675Z,3.28
2022-10-25T00:30:25.117Z,4.20
2022-10-25T00:35:27.384Z,4.00
2022-10-25T00:40:31.285Z,3.83
2022-10-25T00:45:33.697Z,4.47
2022-10-25T00:50:44.027Z,4.47
2022-10-25T00:55:52.535Z,5.40
2022-10-25T01:00:55.080Z,4.55
2022-10-25T01:05:59.879Z,5.10
2022-10-25T01:11:03.678Z,4.60
2022-10-25T01:16:16.040Z,5.18
2022-10-25T01:21:40.098Z,4.85
2022-10-25T01:27:15.791Z,5.20
2022-10-25T01:32:25.115Z,5.53
2022-10-25T01:37:36.214Z,5.30
2022-10-25T01:42:51.087Z,6.10
2022-10-25T01:48:03.092Z,5.43
2022-10-25T01:53:05.380Z,6.32
2022-10-25T01:58:16.315Z,7.45
2022-10-25T02:03:31.447Z,6.97
2022-10-25T02:08:40.212Z,7.95
2022-10-25T02:13:52.584Z,7.18
2022-10-25T02:19:00.968Z,7.88
2022-10-25T02:24:08.135Z,7.47
2022-10-25T02:29:12.804Z,8.13
2022-10-25T02:34:18.746Z,8.15
2022-10-25T02:39:26.474Z,8.50
2022-10-25T02:44:31.419Z,8.52
2022-10-25T02:49:35.246Z,8.82
2022-10-25T02:54:37.501Z,9.48
2022-10-25T02:59:39.791Z,8.43
2022-10-25T03:04:43.582Z,9.05
2022-10-25T03:09:45.883Z,8.80
2022-10-25T03:14:48.109Z,8.18
2022-10-25T03:19:51.825Z,8.30
2022-10-25T03:24:54.188Z,8.63
2022-10-25T03:29:56.544Z,8.10
2022-10-25T03:35:00.451Z,9.00
2022-10-25T03:40:02.695Z,8.43
2022-10-25T03:45:05.982Z,7.57
2022-10-25T03:50:10.241Z,7.40
2022-10-25T03:55:12.555Z,7.85
2022-10-25T04:00:15.774Z,6.47
2022-10-25T04:05:19.496Z,7.30
2022-10-25T04:10:21.906Z,7.90
2022-10-25T04:15:24.897Z,7.45
2022-10-25T04:20:28.683Z,6.85
2022-10-25T04:25:31.072Z,6.55
2022-10-25T04:30:36.574Z,6.88
2022-10-25T04:35:42.781Z,6.78
2022-10-25T04:40:52.627Z,7.03
2022-10-25T04:45:55.457Z,7.25
2022-10-25T04:51:01.156Z,6.78
2022-10-25T04:56:05.960Z,6.57
2022-10-25T05:01:10.606Z,6.60
2022-10-25T05:06:17.581Z,6.53
2022-10-25T05:11:21.651Z,6.00
2022-10-25T05:16:24.220Z,6.80
2022-10-25T05:21:28.252Z,7.05
2022-10-25T05:26:31.361Z,7.13
2022-10-25T05:31:33.666Z,6.95
2022-10-25T05:36:37.474Z,6.35
2022-10-25T05:41:39.835Z,6.07
2022-10-25T05:46:42.446Z,6.90
2022-10-25T05:51:46.229Z,6.80
2022-10-25T05:56:48.499Z,6.35
2022-10-25T06:01:51.066Z,5.45
2022-10-25T06:06:55.148Z,6.10
2022-10-25T06:11:57.565Z,5.90
2022-10-25T06:17:00.067Z,5.43
2022-10-25T06:22:04.028Z,5.47
2022-10-25T06:27:06.467Z,5.57
2022-10-25T06:32:10.055Z,6.03
2022-10-25T06:37:13.935Z,5.72
2022-10-25T06:42:16.180Z,7.82
2022-10-25T06:47:18.643Z,6.07
2022-10-25T06:52:22.671Z,6.28
2022-10-25T06:57:24.865Z,7.18
2022-10-25T07:02:27.447Z,5.90
2022-10-25T07:07:31.419Z,6.22
2022-10-25T07:12:36.209Z,6.07
2022-10-25T07:17:38.620Z,6.72
2022-10-25T07:22:42.313Z,5.82
2022-10-25T07:27:44.836Z,5.88
2022-10-25T07:32:47.343Z,5.70
2022-10-25T07:37:51.279Z,5.75
2022-10-25T07:42:53.669Z,5.65
2022-10-25T07:47:56.256Z,5.00
2022-10-25T07:53:00.212Z,5.78
2022-10-25T07:58:03.835Z,4.88
2022-10-25T08:03:06.410Z,5.75
2022-10-25T08:08:10.174Z,5.47
2022-10-25T08:13:12.590Z,5.40
2022-10-25T08:18:15.039Z,5.00
2022-10-25T08:23:18.966Z,4.32
2022-10-25T08:28:21.538Z,4.15
2022-10-25T08:33:26.031Z,4.38
2022-10-25T08:38:30.098Z,4.25
2022-10-25T08:43:54.529Z,3.95
2022-10-25T08:49:05.765Z,4.20
2022-10-25T08:54:19.754Z,4.05
2022-10-25T08:59:28.568Z,9.52
2022-10-25T09:04:32.005Z,4.03
2022-10-25T09:09:44.312Z,3.47
2022-10-25T09:14:50.908Z,3.42
2022-10-25T09:20:06.114Z,3.93
2022-10-25T09:25:21.198Z,3.72
2022-10-25T09:30:23.636Z,3.45
2022-10-25T09:35:29.702Z,3.45
2022-10-25T09:40:47.580Z,3.85
2022-10-25T09:45:54.597Z,4.85
2022-10-25T09:51:06.417Z,4.00
2022-10-25T09:56:10.270Z,4.32
2022-10-25T10:01:17.243Z,4.00
2022-10-25T10:06:24.214Z,3.50
2022-10-25T10:11:29.485Z,3.28
2022-10-25T10:16:36.081Z,5.43
2022-10-25T10:21:43.079Z,3.50
2022-10-25T10:26:50.874Z,3.05
2022-10-25T10:31:55.359Z,2.72
2022-10-25T10:37:21.115Z,3.50
2022-10-25T10:42:33.860Z,3.08
2022-10-25T10:47:40.024Z,2.63
2022-10-25T10:52:44.939Z,2.80
2022-10-25T10:57:52.101Z,2.60
2022-10-25T11:08:13.816Z,2.30
2022-10-25T11:13:20.275Z,2.30
2022-10-25T11:18:37.463Z,1.70
2022-10-25T11:23:51.209Z,2.20
2022-10-25T11:29:04.329Z,2.25
2022-10-25T11:34:15.932Z,2.00
2022-10-25T11:39:45.959Z,1.60
2022-10-25T11:45:25.073Z,2.13
2022-10-25T11:55:41.124Z,1.45
2022-10-25T12:00:52.769Z,2.33
2022-10-25T12:06:06.407Z,1.90
2022-10-25T12:11:18.061Z,1.27
2022-10-25T12:16:24.613Z,1.48
2022-10-25T12:21:41.485Z,1.60
2022-10-25T12:26:46.050Z,1.25
2022-10-25T12:31:54.243Z,1.70
2022-10-25T12:37:04.873Z,1.40
2022-10-25T12:42:15.137Z,1.60
2022-10-25T12:47:29.583Z,1.33
2022-10-25T12:52:35.449Z,1.55
2022-10-25T12:57:50.154Z,1.42
2022-10-25T13:03:22.292Z,1.60
2022-10-25T13:08:28.180Z,1.67
2022-10-25T13:13:33.432Z,1.35
2022-10-25T13:18:44.489Z,1.42
2022-10-25T13:24:00.285Z,1.60
2022-10-25T13:29:25.776Z,1.92
2022-10-25T13:34:37.021Z,1.90
2022-10-25T13:39:45.510Z,2.08
2022-10-25T13:44:54.704Z,1.80
2022-10-25T13:49:57.423Z,1.75
2022-10-25T13:55:05.407Z,1.40
2022-10-25T14:00:12.620Z,1.60
2022-10-25T14:05:35.160Z,1.40
2022-10-25T14:10:39.676Z,1.30
2022-10-25T14:15:50.449Z,1.50
2022-10-25T14:20:58.515Z,1.13
2022-10-25T14:26:04.112Z,1.50
2022-10-25T14:31:08.260Z,2.10
2022-10-25T14:36:26.856Z,2.20
2022-10-25T14:41:32.250Z,2.15
2022-10-25T14:46:34.526Z,2.22
2022-10-25T14:51:40.551Z,2.20
2022-10-25T14:56:50.890Z,1.35
2022-10-25T15:01:55.155Z,1.70
2022-10-25T15:06:58.911Z,1.80
2022-10-25T15:12:21.050Z,1.83
2022-10-25T15:17:28.525Z,2.25
2022-10-25T15:22:33.593Z,1.70
2022-10-25T15:27:42.879Z,1.58
2022-10-25T15:32:45.664Z,1.88
2022-10-25T15:37:48.273Z,2.25
2022-10-25T15:42:52.210Z,2.15
2022-10-25T15:47:54.645Z,1.85
2022-10-25T15:52:57.184Z,2.05
2022-10-25T15:58:01.297Z,1.70
2022-10-25T16:03:04.838Z,1.80
2022-10-25T16:08:08.197Z,3.17
2022-10-25T16:13:16.476Z,2.30
2022-10-25T16:18:19.109Z,3.42
2022-10-25T16:23:21.704Z,2.03
2022-10-25T16:33:32.980Z,2.30
2022-10-25T16:38:35.524Z,2.42
2022-10-25T16:43:39.436Z,2.28
2022-10-25T16:48:42.485Z,2.47
2022-10-25T16:59:34.436Z,2.63
2022-10-25T17:04:36.761Z,3.95
2022-10-25T17:09:39.548Z,3.80
2022-10-25T17:15:11.212Z,3.63
2022-10-25T17:20:20.647Z,3.88
2022-10-25T17:25:31.365Z,12.63
2022-10-25T17:30:43.040Z,5.40
2022-10-25T17:35:47.057Z,3.80
2022-10-25T17:40:49.583Z,3.53
2022-10-25T17:45:53.462Z,3.95
2022-10-25T17:51:01.786Z,4.43
2022-10-25T17:56:11.320Z,4.65
2022-10-25T18:01:22.891Z,5.30
2022-10-25T18:06:33.701Z,4.43
2022-10-25T18:11:37.088Z,3.95
2022-10-25T18:16:41.389Z,4.57
2022-10-25T18:21:45.521Z,7.13
2022-10-25T18:26:50.751Z,6.93
2022-10-25T18:31:58.562Z,5.05
2022-10-25T18:37:04.335Z,4.28
2022-10-25T18:42:10.726Z,4.63
2022-10-25T18:47:17.572Z,4.73
2022-10-25T18:52:20.096Z,4.55
2022-10-25T18:57:25.338Z,4.63
2022-10-25T19:02:37.810Z,6.10
2022-10-25T19:07:43.897Z,19.58
2022-10-25T19:12:49.142Z,9.48
2022-10-25T19:18:06.019Z,6.38
2022-10-25T19:23:14.476Z,6.35
2022-10-25T19:28:26.226Z,5.85
2022-10-25T19:33:38.750Z,5.55
2022-10-25T19:39:03.749Z,6.28
2022-10-25T19:44:16.413Z,5.95
2022-10-25T19:49:32.982Z,5.65
2022-10-25T19:54:42.692Z,5.65
2022-10-25T19:59:53.701Z,5.57
2022-10-25T20:05:05.319Z,5.25
2022-10-25T20:10:15.551Z,5.53
2022-10-25T20:15:26.520Z,5.30
2022-10-25T20:20:39.512Z,5.07
2022-10-25T20:25:50.146Z,6.50
2022-10-25T20:31:07.361Z,6.13
2022-10-25T20:41:25.345Z,6.30
2022-10-25T20:46:33.119Z,6.25
2022-10-25T20:51:41.330Z,6.03
2022-10-25T20:56:50.181Z,5.45
2022-10-25T21:01:57.694Z,5.78
2022-10-25T21:07:05.621Z,5.40
2022-10-25T21:12:10.109Z,6.05
2022-10-25T21:17:20.933Z,5.20
2022-10-25T21:22:25.867Z,7.53
2022-10-25T21:27:28.212Z,6.55
2022-10-25T21:32:30.609Z,6.35
2022-10-25T21:37:34.686Z,5.20
2022-10-25T21:42:36.997Z,5.55
2022-10-25T21:47:39.232Z,5.05
2022-10-25T21:52:43.036Z,5.45
2022-10-25T21:57:47.235Z,5.50
2022-10-25T22:02:51.449Z,5.22
2022-10-25T22:07:55.218Z,5.13
2022-10-25T22:12:57.619Z,5.72
2022-10-25T22:17:59.877Z,6.85
2022-10-25T22:23:03.709Z,6.15
2022-10-25T22:28:06.095Z,5.95
2022-10-25T22:33:08.352Z,7.65
2022-10-25T22:38:12.138Z,8.88
2022-10-25T22:43:14.503Z,6.55
2022-10-25T22:48:16.977Z,5.88
2022-10-25T22:53:22.141Z,5.88
2022-10-25T22:58:26.378Z,5.65
2022-10-25T23:03:32.151Z,5.15
2022-10-25T23:08:36.181Z,4.78
2022-10-25T23:13:38.509Z,5.00
2022-10-25T23:18:41.506Z,5.32
2022-10-25T23:23:46.427Z,5.57
2022-10-25T23:28:49.035Z,6.30
2022-10-25T23:33:52.869Z,6.68
2022-10-25T23:38:58.083Z,6.15
2022-10-25T23:44:00.609Z,5.55
2022-10-25T23:49:03.098Z,5.88
2022-10-25T23:54:07.013Z,8.10
2022-10-25T23:59:09.463Z,5.93
